Time;durP1;ratioP1;P1;durP2;ratioP2;P2;SDS_P1;SDS_P2;PMS_P1;PMS_P2;Temp;Humidity;BMP_temperature;BMP_pressure;BME280_temperature;BME280_humidity;BME280_pressure;Samples;Min_cycle;Max_cycle;Signal;HPM_P1;HPM_P2
2022/06/23 03:01:47;;;;;;;1.20;1.10;;;20.60;83.50;;;;;;5635862;22;20501;-73
2022/06/23 03:04:20;;;;;;;1.00;0.90;;;20.60;83.20;;;;;;5035898;28;20477;-73
2022/06/23 03:06:49;;;;;;;1.00;0.90;;;20.60;83.20;;;;;;5035771;28;20427;-73
2022/06/23 03:09:23;;;;;;;1.27;1.17;;;20.60;83.40;;;;;;5035517;28;20435;-73
2022/06/23 03:11:54;;;;;;;1.00;0.80;;;20.70;83.40;;;;;;5035449;28;20513;-74
2022/06/23 03:14:31;;;;;;;1.10;1.00;;;20.70;83.40;;;;;;5037165;28;20408;-73
2022/06/23 03:17:05;;;;;;;1.27;1.00;;;20.70;83.40;;;;;;5035732;28;20477;-73
2022/06/23 03:19:37;;;;;;;1.00;0.90;;;20.80;83.10;;;;;;5035682;28;20481;-73
2022/06/23 03:22:08;;;;;;;1.13;1.03;;;20.80;83.10;;;;;;5035459;28;20467;-73
2022/06/23 03:24:43;;;;;;;0.90;0.80;;;20.70;82.90;;;;;;5035429;28;20431;-73
2022/06/23 03:27:19;;;;;;;1.03;0.93;;;20.70;82.80;;;;;;5035013;28;20430;-73
2022/06/23 03:29:52;;;;;;;1.10;1.00;;;20.70;83.10;;;;;;5034969;28;20819;-73
2022/06/23 03:32:25;;;;;;;0.87;0.80;;;20.70;83.60;;;;;;5035195;28;20467;-73
2022/06/23 03:34:57;;;;;;;1.10;1.00;;;20.60;84.20;;;;;;5034984;28;20895;-73
2022/06/23 03:37:34;;;;;;;0.70;0.70;;;20.70;83.70;;;;;;5035280;28;20440;-73
2022/06/23 03:43:06;;;;;;;1.00;0.90;;;20.70;83.20;;;;;;4995218;28;20442;-73
2022/06/23 03:45:37;;;;;;;1.20;1.10;;;20.80;83.10;;;;;;5035199;28;20455;-73
2022/06/23 03:48:09;;;;;;;1.10;1.00;;;20.90;83.30;;;;;;5034806;28;20779;-73
2022/06/23 03:50:44;;;;;;;1.17;1.07;;;20.90;83.40;;;;;;5035073;28;20438;-73
2022/06/23 03:53:18;;;;;;;1.60;1.10;;;21.00;83.20;;;;;;5034983;28;20488;-73
2022/06/23 03:55:49;;;;;;;1.10;1.00;;;21.00;83.50;;;;;;5034863;28;20513;-73
2022/06/23 03:58:20;;;;;;;1.10;1.00;;;20.90;84.40;;;;;;5034841;28;20428;-73
2022/06/23 04:00:56;;;;;;;1.57;1.10;;;20.80;85.10;;;;;;5034729;28;20525;-72
2022/06/23 04:03:29;;;;;;;1.07;0.97;;;20.70;85.60;;;;;;5034900;28;20431;-73
2022/06/23 04:06:32;;;;;;;1.20;1.10;;;20.60;85.70;;;;;;5034380;28;20895;-73
2022/06/23 04:09:05;;;;;;;1.20;1.00;;;20.70;85.50;;;;;;5034893;28;20435;-73
2022/06/23 04:11:44;;;;;;;1.20;1.10;;;20.60;85.90;;;;;;5034328;28;20974;-73
2022/06/23 04:14:16;;;;;;;1.03;0.93;;;20.70;85.60;;;;;;5034512;28;20435;-73
2022/06/23 04:16:43;;;;;;;0.97;0.97;;;20.80;85.00;;;;;;5034548;28;20525;-73
2022/06/23 04:19:18;;;;;;;1.17;1.10;;;21.00;84.70;;;;;;5034484;28;20450;-73
2022/06/23 04:21:48;;;;;;;1.10;1.00;;;21.10;84.20;;;;;;5034520;28;20537;-73
2022/06/23 04:24:19;;;;;;;1.00;1.00;;;21.20;83.90;;;;;;5033478;28;20753;-73
2022/06/23 04:26:50;;;;;;;1.30;1.20;;;21.30;83.70;;;;;;5034317;28;20877;-73
2022/06/23 04:29:24;;;;;;;1.20;1.10;;;21.40;83.20;;;;;;5034281;28;20447;-73
2022/06/23 04:31:53;;;;;;;1.27;1.17;;;21.40;83.10;;;;;;5034228;28;20471;-73
2022/06/23 04:34:25;;;;;;;1.20;1.10;;;21.50;83.00;;;;;;5035097;28;20529;-73
2022/06/23 04:36:52;;;;;;;1.10;1.00;;;21.50;83.00;;;;;;5034068;28;20478;-73
2022/06/23 04:39:27;;;;;;;1.10;1.00;;;21.50;83.10;;;;;;5034163;28;20455;-73
2022/06/23 04:42:00;;;;;;;1.20;1.10;;;21.40;83.20;;;;;;5033829;28;21028;-73
2022/06/23 04:44:30;;;;;;;1.50;1.40;;;21.40;83.30;;;;;;5033840;28;20934;-73
2022/06/23 04:47:00;;;;;;;1.00;0.90;;;21.40;83.20;;;;;;5033915;28;20451;-73
2022/06/23 04:49:34;;;;;;;0.80;0.80;;;21.50;83.00;;;;;;5033875;28;20436;-73
2022/06/23 04:52:05;;;;;;;1.10;1.00;;;21.50;82.80;;;;;;5033461;28;20866;-72
2022/06/23 04:54:36;;;;;;;1.10;1.00;;;21.60;82.80;;;;;;5033491;28;20976;-73
2022/06/23 04:57:11;;;;;;;1.00;0.90;;;21.60;82.70;;;;;;5033722;28;20423;-73
2022/06/23 04:59:41;;;;;;;1.20;1.10;;;21.70;82.50;;;;;;5033679;28;20921;-72
2022/06/23 05:02:23;;;;;;;1.00;0.90;;;21.90;82.30;;;;;;5033252;28;21051;-72
2022/06/23 05:04:58;;;;;;;1.20;1.10;;;22.00;82.20;;;;;;5033562;28;20420;-73
2022/06/23 05:07:28;;;;;;;1.83;1.10;;;22.10;81.80;;;;;;5033497;28;20504;-72
2022/06/23 05:10:00;;;;;;;1.03;0.93;;;22.00;82.00;;;;;;5033516;28;20783;-72
2022/06/23 05:12:32;;;;;;;1.20;1.10;;;21.90;82.00;;;;;;5033413;28;20517;-72
2022/06/23 05:15:05;;;;;;;1.30;1.20;;;21.90;82.30;;;;;;5033354;28;20428;-73
2022/06/23 05:17:35;;;;;;;1.20;1.10;;;22.00;82.90;;;;;;5033628;28;20432;-73
2022/06/23 05:20:07;;;;;;;0.80;0.80;;;21.90;83.30;;;;;;5033082;28;20855;-73
2022/06/23 05:22:38;;;;;;;1.30;1.20;;;21.80;83.80;;;;;;5033573;28;20471;-72
2022/06/23 05:25:25;;;;;;;1.00;0.90;;;21.60;84.70;;;;;;5033078;28;20894;-73
2022/06/23 05:27:52;;;;;;;1.20;1.10;;;21.70;84.20;;;;;;5033333;28;20485;-73
2022/06/23 05:30:26;;;;;;;1.10;1.00;;;21.80;84.00;;;;;;5033188;28;20466;-72
2022/06/23 05:32:56;;;;;;;0.80;0.80;;;21.80;84.10;;;;;;5033280;28;20432;-73
2022/06/23 05:35:27;;;;;;;1.33;1.00;;;21.90;84.10;;;;;;5033311;28;20482;-73
2022/06/23 05:37:57;;;;;;;1.20;1.10;;;21.80;84.20;;;;;;5037392;28;20435;-72
2022/06/23 05:40:30;;;;;;;1.20;1.10;;;21.70;84.80;;;;;;5037271;28;20508;-71
2022/06/23 05:43:00;;;;;;;1.00;0.90;;;21.60;85.10;;;;;;5037306;28;20427;-72
2022/06/23 05:45:31;;;;;;;1.27;1.17;;;21.40;85.80;;;;;;5037310;28;20448;-73
2022/06/23 05:48:00;;;;;;;0.87;0.80;;;21.40;85.90;;;;;;5036806;28;20972;-74
2022/06/23 05:50:36;;;;;;;1.10;0.97;;;21.60;85.00;;;;;;5037101;28;20447;-74
2022/06/23 05:53:07;;;;;;;1.20;1.10;;;21.80;84.20;;;;;;5037037;28;20522;-74
2022/06/23 05:55:47;;;;;;;1.10;1.00;;;21.90;84.30;;;;;;5036980;28;20463;-73
2022/06/23 05:58:20;;;;;;;1.00;0.97;;;22.00;83.80;;;;;;5037359;28;20481;-74
2022/06/23 06:00:51;;;;;;;0.80;0.80;;;22.10;83.10;;;;;;5036614;28;20974;-73
2022/06/23 06:03:23;;;;;;;1.67;0.90;;;22.20;82.90;;;;;;5036980;28;20431;-74
2022/06/23 06:05:56;;;;;;;1.30;1.00;;;22.40;82.70;;;;;;5037079;28;20888;-74
2022/06/23 06:08:29;;;;;;;1.00;0.90;;;22.60;82.20;;;;;;5036995;28;20474;-74
2022/06/23 06:10:56;;;;;;;1.00;0.90;;;22.70;81.30;;;;;;5037149;28;20471;-74
2022/06/23 06:13:27;;;;;;;1.20;1.10;;;22.50;81.90;;;;;;5037016;28;20447;-74
2022/06/23 06:15:56;;;;;;;1.20;1.10;;;22.70;81.60;;;;;;5036798;28;20463;-74
2022/06/23 06:18:28;;;;;;;0.90;0.90;;;22.70;81.60;;;;;;5037279;28;20455;-73
2022/06/23 06:20:59;;;;;;;1.30;0.87;;;22.70;82.00;;;;;;5037456;28;20521;-73
2022/06/23 06:23:34;;;;;;;1.40;1.00;;;23.00;80.60;;;;;;5037582;28;20435;-73
2022/06/23 06:26:01;;;;;;;0.90;0.90;;;23.40;80.30;;;;;;5037523;28;20436;-73
2022/06/23 06:28:31;;;;;;;1.30;1.20;;;23.60;79.00;;;;;;5037725;28;20447;-73
2022/06/23 06:31:03;;;;;;;1.17;1.07;;;23.20;79.90;;;;;;5037221;28;20525;-73
2022/06/23 06:33:44;;;;;;;1.30;1.20;;;23.60;79.40;;;;;;5036769;28;20423;-71
2022/06/23 06:36:42;;;;;;;1.20;1.10;;;23.70;78.60;;;;;;5036574;28;20471;-73
2022/06/23 06:39:13;;;;;;;1.20;1.10;;;23.40;79.70;;;;;;5024243;28;20483;-72
2022/06/23 06:41:43;;;;;;;0.93;0.80;;;23.60;78.90;;;;;;5036891;28;20463;-73
2022/06/23 06:44:12;;;;;;;1.23;1.13;;;23.80;76.90;;;;;;5037226;28;20435;-73
2022/06/23 06:46:40;;;;;;;1.20;1.00;;;23.80;78.00;;;;;;5036110;28;20447;-73
2022/06/23 06:49:11;;;;;;;1.23;1.13;;;24.00;78.10;;;;;;5036800;28;20447;-73
2022/06/23 06:51:40;;;;;;;1.20;1.00;;;24.30;75.90;;;;;;5036757;28;20463;-73
2022/06/23 06:54:13;;;;;;;1.23;1.07;;;24.50;74.80;;;;;;5036409;28;20849;-73
2022/06/23 06:56:44;;;;;;;1.00;1.00;;;24.50;74.60;;;;;;5036540;28;20463;-73
2022/06/23 06:59:16;;;;;;;1.30;1.20;;;24.80;74.90;;;;;;5036656;28;20431;-72
2022/06/23 07:01:47;;;;;;;0.80;0.80;;;25.00;74.70;;;;;;5036342;28;20489;-73
2022/06/23 07:04:18;;;;;;;1.10;0.90;;;25.10;74.40;;;;;;5036979;28;20436;-73
2022/06/23 07:06:50;;;;;;;1.13;1.03;;;25.30;74.60;;;;;;5036463;28;20442;-74
2022/06/23 07:09:27;;;;;;;0.90;0.90;;;25.50;72.40;;;;;;5036573;28;20444;-73
2022/06/23 07:11:59;;;;;;;1.03;0.90;;;25.50;72.30;;;;;;5036377;28;20471;-74
2022/06/23 07:14:32;;;;;;;1.00;1.00;;;25.70;72.20;;;;;;5036908;28;20440;-73
2022/06/23 07:17:03;;;;;;;0.90;0.80;;;26.00;72.70;;;;;;5036407;28;20467;-73
2022/06/23 07:19:35;;;;;;;0.77;0.70;;;25.90;71.20;;;;;;5036299;28;20486;-74
2022/06/23 07:22:12;;;;;;;1.00;0.90;;;25.60;72.10;;;;;;5036277;28;20472;-73
2022/06/23 07:24:46;;;;;;;1.00;0.90;;;25.30;72.70;;;;;;5036264;28;20436;-73
2022/06/23 07:27:20;;;;;;;1.10;0.80;;;25.20;71.70;;;;;;5036287;28;20844;-73
2022/06/23 07:29:54;;;;;;;1.00;0.80;;;25.10;70.70;;;;;;5036657;28;20919;-73
2022/06/23 07:32:38;;;;;;;1.13;1.03;;;25.10;71.00;;;;;;5036056;28;20977;-73
2022/06/23 07:35:14;;;;;;;0.97;0.90;;;25.40;72.50;;;;;;5035972;28;20481;-73
2022/06/23 07:37:48;;;;;;;1.07;0.97;;;25.20;70.80;;;;;;5036275;28;20463;-73
2022/06/23 07:40:17;;;;;;;0.80;0.80;;;25.20;71.90;;;;;;5035982;28;20977;-73
2022/06/23 07:42:51;;;;;;;1.17;0.90;;;25.40;70.80;;;;;;5036352;28;20566;-73
2022/06/23 07:45:22;;;;;;;0.97;0.87;;;25.60;69.50;;;;;;5036530;28;20466;-73
2022/06/23 07:47:48;;;;;;;1.00;0.90;;;25.70;70.20;;;;;;5036069;28;20436;-73
2022/06/23 07:50:15;;;;;;;0.70;0.70;;;25.60;70.90;;;;;;5035666;28;20506;-74
2022/06/23 07:52:45;;;;;;;1.10;1.00;;;25.70;71.80;;;;;;5035212;28;20979;-72
2022/06/23 07:55:19;;;;;;;0.70;0.70;;;25.70;70.70;;;;;;5035904;28;20455;-73
2022/06/23 07:57:46;;;;;;;1.00;0.90;;;25.90;71.10;;;;;;5035293;28;20467;-73
2022/06/23 08:00:15;;;;;;;1.00;0.90;;;26.00;69.40;;;;;;5035043;28;20447;-73
2022/06/23 08:02:46;;;;;;;1.33;1.00;;;26.20;69.70;;;;;;5035782;28;20547;-73
2022/06/23 08:05:18;;;;;;;0.90;0.70;;;26.10;69.10;;;;;;5035501;28;20436;-74
2022/06/23 08:07:46;;;;;;;1.00;0.90;;;26.20;68.60;;;;;;5035337;28;20481;-73
2022/06/23 08:10:20;;;;;;;0.87;0.80;;;26.10;67.40;;;;;;5035439;28;20516;-74
2022/06/23 08:12:53;;;;;;;1.00;0.80;;;26.30;68.80;;;;;;5034639;28;20886;-73
2022/06/23 08:18:20;;;;;;;1.10;0.80;;;26.30;68.50;;;;;;5034790;28;20777;-73
2022/06/23 08:20:53;;;;;;;0.90;0.90;;;26.20;68.80;;;;;;5035284;28;20463;-73
2022/06/23 08:23:24;;;;;;;0.93;0.93;;;26.20;68.70;;;;;;5035890;28;20522;-73
2022/06/23 08:25:50;;;;;;;1.20;1.10;;;25.70;67.60;;;;;;5035721;28;20447;-74
2022/06/23 08:28:18;;;;;;;1.10;0.90;;;25.80;69.60;;;;;;5035559;28;20447;-74
2022/06/23 08:30:46;;;;;;;1.30;1.20;;;26.00;68.60;;;;;;5035502;28;20467;-73
2022/06/23 08:33:14;;;;;;;0.80;0.80;;;26.10;67.70;;;;;;5035542;28;20483;-73
2022/06/23 08:35:42;;;;;;;0.93;0.80;;;26.20;69.20;;;;;;5035302;28;20474;-73
2022/06/23 08:38:12;;;;;;;1.10;1.00;;;26.10;68.40;;;;;;5034906;28;20482;-73
2022/06/23 08:41:00;;;;;;;0.80;0.80;;;26.40;68.80;;;;;;5034789;28;20451;-73
2022/06/23 08:43:35;;;;;;;1.17;0.93;;;26.60;68.20;;;;;;5036021;28;20526;-73
2022/06/23 08:46:10;;;;;;;1.27;0.80;;;26.80;68.50;;;;;;5035020;28;20439;-73
2022/06/23 08:48:43;;;;;;;1.10;1.00;;;26.90;66.70;;;;;;5035065;28;20466;-73
2022/06/23 08:51:18;;;;;;;0.90;0.90;;;27.00;64.90;;;;;;5034911;28;20517;-73
2022/06/23 08:53:55;;;;;;;1.20;0.83;;;26.70;63.90;;;;;;5035207;28;20524;-73
2022/06/23 08:56:27;;;;;;;1.17;0.80;;;26.30;66.90;;;;;;5035144;28;20973;-74
2022/06/23 08:59:01;;;;;;;1.00;0.90;;;26.40;65.70;;;;;;5035273;28;20833;-73
2022/06/23 09:01:33;;;;;;;1.00;0.90;;;26.70;66.50;;;;;;5034960;28;20486;-73
2022/06/23 09:04:08;;;;;;;1.00;0.90;;;26.70;66.00;;;;;;5035004;28;20965;-73
2022/06/23 09:06:41;;;;;;;1.00;0.83;;;26.60;66.20;;;;;;5034592;28;20434;-73
2022/06/23 09:09:21;;;;;;;1.00;0.90;;;26.70;67.60;;;;;;5035320;28;20440;-73
2022/06/23 09:12:00;;;;;;;1.20;1.10;;;26.60;65.80;;;;;;5034383;28;20513;-73
2022/06/23 09:15:08;;;;;;;1.10;1.00;;;26.70;64.70;;;;;;5036616;28;20431;-74
2022/06/23 09:18:14;;;;;;;0.80;0.80;;;27.00;65.60;;;;;;5034463;28;20974;-73
2022/06/23 09:20:53;;;;;;;0.80;0.70;;;26.90;64.30;;;;;;5019350;28;20463;-73
2022/06/23 09:23:41;;;;;;;0.70;0.70;;;27.00;66.40;;;;;;5034045;28;20493;-73
2022/06/23 09:26:22;;;;;;;0.80;0.80;;;27.20;65.20;;;;;;5035516;28;20462;-73
2022/06/23 09:28:53;;;;;;;2.07;0.87;;;27.40;65.80;;;;;;5034133;28;20906;-73
2022/06/23 09:31:23;;;;;;;1.10;0.80;;;27.50;65.00;;;;;;5034836;28;20470;-73
2022/06/23 09:34:13;;;;;;;0.83;0.83;;;27.50;66.20;;;;;;5034229;28;20942;-73
2022/06/23 09:37:11;;;;;;;1.00;0.80;;;27.60;64.30;;;;;;5034189;28;20554;-74
2022/06/23 09:39:59;;;;;;;1.10;0.83;;;27.90;64.40;;;;;;5033973;28;20482;-73
2022/06/23 09:42:54;;;;;;;0.90;0.70;;;28.20;63.80;;;;;;5033856;28;20463;-74
2022/06/23 09:45:48;;;;;;;0.90;0.80;;;28.10;62.20;;;;;;5034327;28;20435;-73
2022/06/23 09:48:40;;;;;;;0.97;0.80;;;28.00;63.50;;;;;;5035169;28;20435;-73
2022/06/23 09:51:23;;;;;;;1.00;0.90;;;28.00;62.50;;;;;;5033731;28;21035;-74
2022/06/23 09:54:17;;;;;;;0.80;0.80;;;27.90;62.90;;;;;;5035870;28;20428;-74
2022/06/23 09:57:00;;;;;;;0.77;0.70;;;28.00;63.50;;;;;;5034690;28;20475;-74
2022/06/23 10:00:01;;;;;;;1.00;0.90;;;28.30;64.70;;;;;;5034974;28;20919;-73
2022/06/23 10:02:48;;;;;;;1.10;0.90;;;28.30;63.50;;;;;;5033179;28;20917;-73
2022/06/23 10:05:33;;;;;;;0.80;0.80;;;28.30;63.50;;;;;;5035869;28;20535;-74
2022/06/23 10:08:09;;;;;;;1.00;0.80;;;28.10;63.30;;;;;;5035531;28;20493;-73
2022/06/23 10:10:50;;;;;;;0.83;0.80;;;28.20;65.00;;;;;;5036008;28;20431;-73
2022/06/23 10:13:30;;;;;;;0.80;0.80;;;28.40;62.90;;;;;;5034007;28;20435;-73
2022/06/23 10:16:07;;;;;;;1.97;0.70;;;28.20;63.00;;;;;;5033863;28;20490;-73
2022/06/23 10:19:02;;;;;;;1.00;0.70;;;28.00;62.50;;;;;;5034810;28;20978;-73
2022/06/23 10:21:41;;;;;;;0.80;0.80;;;28.00;63.50;;;;;;5033489;28;20467;-73
2022/06/23 10:24:38;;;;;;;0.70;0.60;;;28.10;64.00;;;;;;5036528;28;20906;-74
2022/06/23 10:27:27;;;;;;;0.90;0.80;;;27.90;63.10;;;;;;5037811;28;20838;-74
2022/06/23 10:30:05;;;;;;;0.87;0.77;;;28.10;63.20;;;;;;5037644;28;20431;-74
2022/06/23 10:32:56;;;;;;;0.90;0.80;;;28.00;61.10;;;;;;5037252;28;20985;-73
2022/06/23 10:35:34;;;;;;;0.90;0.90;;;27.90;60.10;;;;;;5004340;28;20533;-74
2022/06/23 10:38:23;;;;;;;1.27;0.97;;;27.90;60.30;;;;;;5036956;28;20467;-74
2022/06/23 10:41:16;;;;;;;1.00;0.90;;;28.00;61.30;;;;;;5036533;28;20471;-73
2022/06/23 10:43:55;;;;;;;0.80;0.70;;;28.20;61.10;;;;;;5036723;28;20501;-72
2022/06/23 10:46:25;;;;;;;0.80;0.70;;;28.30;60.00;;;;;;5038536;28;20443;-74
2022/06/23 10:49:19;;;;;;;1.20;0.70;;;28.30;61.30;;;;;;5036523;28;20436;-74
2022/06/23 10:52:06;;;;;;;1.03;0.93;;;28.80;62.20;;;;;;5037036;28;20471;-74
2022/06/23 10:54:55;;;;;;;0.80;0.80;;;28.60;60.30;;;;;;5038086;28;20477;-74
2022/06/23 10:57:42;;;;;;;1.10;0.73;;;28.60;61.30;;;;;;5037294;28;20518;-74
2022/06/23 11:00:12;;;;;;;0.80;0.73;;;29.00;59.90;;;;;;5038251;28;20478;-75
2022/06/23 11:03:20;;;;;;;0.93;0.70;;;29.40;59.60;;;;;;5035811;28;20529;-74
2022/06/23 11:06:16;;;;;;;1.40;0.90;;;29.40;59.20;;;;;;5036025;28;20490;-73
2022/06/23 11:09:04;;;;;;;1.10;0.80;;;29.40;58.40;;;;;;5035882;28;20439;-74
2022/06/23 11:11:59;;;;;;;0.80;0.80;;;29.40;59.60;;;;;;5035724;28;20521;-73
2022/06/23 11:14:37;;;;;;;0.80;0.70;;;29.70;58.00;;;;;;5029324;28;20493;-73
2022/06/23 11:17:12;;;;;;;0.70;0.60;;;29.80;57.70;;;;;;5035304;28;20977;-75
2022/06/23 11:19:51;;;;;;;1.00;0.90;;;29.90;58.90;;;;;;5035676;28;20436;-73
2022/06/23 11:22:33;;;;;;;1.20;0.90;;;29.80;55.80;;;;;;5035522;28;20521;-73
2022/06/23 11:25:19;;;;;;;1.20;1.03;;;29.80;57.30;;;;;;5036029;28;20915;-73
2022/06/23 11:27:55;;;;;;;0.80;0.80;;;30.00;57.60;;;;;;5033799;28;20550;-73
2022/06/23 11:30:28;;;;;;;0.97;0.87;;;30.40;57.30;;;;;;5035830;28;20497;-74
2022/06/23 11:33:35;;;;;;;0.90;0.80;;;30.60;55.70;;;;;;5035124;28;20427;-73
2022/06/23 11:36:13;;;;;;;0.90;0.83;;;30.50;56.40;;;;;;5035169;28;20427;-72
2022/06/23 11:39:02;;;;;;;0.80;0.70;;;30.30;54.70;;;;;;5035276;28;20463;-76
2022/06/23 11:42:17;;;;;;;1.73;0.90;;;30.00;55.60;;;;;;5035051;28;20562;-75
2022/06/23 11:45:01;;;;;;;0.70;0.70;;;30.20;56.40;;;;;;5035209;28;20486;-73
2022/06/23 11:47:39;;;;;;;0.90;0.80;;;30.20;55.00;;;;;;5035196;28;20518;-75
2022/06/23 11:50:12;;;;;;;0.97;0.83;;;29.90;55.40;;;;;;5035362;28;20481;-71
2022/06/23 11:52:54;;;;;;;0.80;0.70;;;30.20;58.40;;;;;;5035491;28;20554;-73
2022/06/23 11:55:30;;;;;;;1.27;0.90;;;30.60;58.50;;;;;;5036308;28;20461;-72
2022/06/23 11:58:15;;;;;;;0.80;0.60;;;31.00;56.90;;;;;;5036747;28;20478;-74
2022/06/23 12:00:50;;;;;;;1.43;0.77;;;31.10;54.30;;;;;;5036104;28;20435;-74
2022/06/23 12:03:34;;;;;;;0.80;0.80;;;30.80;54.50;;;;;;5036148;28;20432;-73
2022/06/23 12:06:09;;;;;;;1.10;0.80;;;30.70;55.10;;;;;;5035117;28;20507;-73
2022/06/23 12:08:55;;;;;;;1.10;0.80;;;30.70;53.80;;;;;;5034741;28;20443;-73
2022/06/23 12:11:22;;;;;;;0.90;0.83;;;30.60;55.70;;;;;;5034595;28;20525;-73
2022/06/23 12:13:50;;;;;;;0.83;0.80;;;31.00;54.70;;;;;;5034256;28;20938;-73
2022/06/23 12:16:17;;;;;;;0.80;0.70;;;31.10;53.70;;;;;;5034260;28;20862;-74
2022/06/23 12:18:50;;;;;;;0.90;0.80;;;30.90;54.50;;;;;;5034333;28;20899;-73
2022/06/23 12:21:34;;;;;;;1.27;0.70;;;30.30;54.80;;;;;;5034510;28;20471;-73
2022/06/23 12:24:10;;;;;;;0.80;0.80;;;30.40;56.20;;;;;;5034166;28;20832;-73
2022/06/23 12:26:43;;;;;;;0.80;0.80;;;30.70;56.20;;;;;;5034281;28;20489;-73
2022/06/23 12:29:19;;;;;;;0.90;0.80;;;30.80;55.20;;;;;;5034211;28;20474;-73
2022/06/23 12:31:55;;;;;;;0.80;0.80;;;30.90;54.80;;;;;;5034258;28;20463;-74
2022/06/23 12:34:30;;;;;;;0.90;0.77;;;31.00;55.60;;;;;;5034194;28;20485;-73
2022/06/23 12:37:10;;;;;;;0.90;0.80;;;30.80;54.40;;;;;;5034076;28;20435;-73
2022/06/23 12:39:45;;;;;;;0.97;0.83;;;30.20;54.60;;;;;;5034222;28;20852;-74
2022/06/23 12:42:18;;;;;;;0.80;0.80;;;30.60;54.20;;;;;;5034860;28;20494;-74
2022/06/23 12:44:59;;;;;;;0.90;0.80;;;30.90;54.80;;;;;;5034749;28;20470;-74
2022/06/23 12:47:36;;;;;;;1.10;0.90;;;31.30;54.30;;;;;;5035301;28;20907;-74
2022/06/23 12:50:37;;;;;;;1.47;0.70;;;31.20;55.00;;;;;;5034413;28;20962;-74
2022/06/23 12:53:20;;;;;;;0.77;0.70;;;31.50;54.70;;;;;;5034530;28;20490;-74
2022/06/23 12:56:03;;;;;;;1.03;0.70;;;31.70;52.30;;;;;;5034618;28;20470;-73
2022/06/23 12:58:38;;;;;;;2.20;0.70;;;31.60;51.50;;;;;;5033934;28;20479;-74
2022/06/23 13:01:13;;;;;;;0.70;0.70;;;31.80;50.50;;;;;;5033264;28;20470;-73
2022/06/23 13:03:51;;;;;;;0.80;0.80;;;31.30;50.70;;;;;;5034460;28;20427;-73
2022/06/23 13:06:28;;;;;;;1.17;1.00;;;31.30;52.90;;;;;;5035438;28;20435;-73
2022/06/23 13:09:15;;;;;;;1.03;0.80;;;31.20;51.50;;;;;;5034471;28;20434;-73
2022/06/23 13:11:48;;;;;;;1.00;0.90;;;31.60;52.40;;;;;;5034470;28;21058;-74
2022/06/23 13:14:19;;;;;;;0.70;0.70;;;31.60;53.40;;;;;;5034688;28;20432;-73
2022/06/23 13:16:54;;;;;;;1.23;0.80;;;31.60;52.80;;;;;;5035788;28;20435;-73
2022/06/23 13:19:29;;;;;;;1.00;0.80;;;31.80;52.10;;;;;;5035936;28;20459;-73
2022/06/23 13:22:05;;;;;;;0.70;0.70;;;31.90;51.70;;;;;;5034891;28;20846;-73
2022/06/23 13:24:34;;;;;;;0.70;0.60;;;31.80;52.00;;;;;;5034835;28;20779;-73
2022/06/23 13:27:06;;;;;;;0.83;0.70;;;31.50;53.80;;;;;;5034685;28;20538;-73
2022/06/23 13:29:39;;;;;;;0.90;0.80;;;31.50;51.60;;;;;;5034166;28;20899;-74
2022/06/23 13:32:14;;;;;;;1.13;0.80;;;31.60;52.80;;;;;;5033255;28;20899;-74
2022/06/23 13:34:51;;;;;;;1.00;0.80;;;31.90;52.60;;;;;;5034834;28;20485;-74
2022/06/23 13:37:23;;;;;;;0.70;0.67;;;32.20;51.70;;;;;;5033668;28;20477;-73
2022/06/23 13:39:55;;;;;;;0.77;0.70;;;32.00;51.70;;;;;;5033175;28;20930;-73
2022/06/23 13:42:26;;;;;;;0.80;0.70;;;32.00;51.00;;;;;;5033529;28;20585;-74
2022/06/23 13:45:00;;;;;;;1.00;0.80;;;32.20;51.30;;;;;;5033483;28;20785;-73
2022/06/23 13:47:35;;;;;;;0.80;0.70;;;32.00;49.80;;;;;;5033516;28;20494;-74
2022/06/23 13:50:09;;;;;;;0.83;0.70;;;31.90;50.20;;;;;;5033595;28;20461;-73
2022/06/23 13:52:42;;;;;;;0.90;0.80;;;31.70;51.30;;;;;;5033521;28;20605;-73
2022/06/23 13:55:15;;;;;;;0.77;0.63;;;31.90;52.00;;;;;;5034147;28;20420;-73
2022/06/23 13:57:47;;;;;;;0.80;0.70;;;32.00;50.00;;;;;;5036531;28;20686;-73
2022/06/23 14:00:18;;;;;;;1.50;1.03;;;32.30;48.50;;;;;;5037339;28;20503;-73
2022/06/23 14:02:54;;;;;;;0.80;0.70;;;32.40;49.50;;;;;;5036934;28;20483;-73
2022/06/23 14:05:30;;;;;;;0.80;0.70;;;32.40;48.90;;;;;;5037304;28;20435;-73
2022/06/23 14:08:03;;;;;;;0.70;0.70;;;32.80;47.90;;;;;;5036824;28;20427;-73
2022/06/23 14:10:36;;;;;;;0.70;0.63;;;33.00;47.60;;;;;;5036821;28;20481;-72
2022/06/23 14:13:10;;;;;;;0.70;0.70;;;32.80;48.90;;;;;;5036645;28;20925;-73
2022/06/23 14:15:49;;;;;;;0.70;0.70;;;32.70;48.30;;;;;;5038223;28;20489;-73
2022/06/23 14:18:23;;;;;;;0.80;0.73;;;32.30;47.80;;;;;;5036987;28;21051;-72
2022/06/23 14:20:57;;;;;;;0.90;0.70;;;32.20;48.00;;;;;;5036587;28;20819;-72
2022/06/23 14:23:30;;;;;;;0.70;0.70;;;32.50;49.40;;;;;;5036252;28;20853;-73
2022/06/23 14:26:04;;;;;;;0.73;0.67;;;32.30;46.50;;;;;;5036542;28;20925;-72
2022/06/23 14:28:35;;;;;;;1.00;0.90;;;32.10;47.00;;;;;;5036506;28;20457;-72
2022/06/23 14:31:07;;;;;;;0.70;0.60;;;32.00;47.50;;;;;;5036546;28;20471;-72
2022/06/23 14:33:42;;;;;;;0.80;0.70;;;31.90;48.00;;;;;;5036341;28;20497;-72
2022/06/23 14:36:14;;;;;;;1.13;0.70;;;31.70;48.90;;;;;;5036369;28;20439;-72
2022/06/23 14:38:48;;;;;;;0.70;0.70;;;31.60;49.90;;;;;;5036191;28;20513;-73
2022/06/23 14:41:40;;;;;;;0.90;0.80;;;32.00;50.30;;;;;;5036507;28;20521;-73
2022/06/23 14:44:24;;;;;;;1.00;0.70;;;31.80;48.10;;;;;;5036785;28;20489;-73
2022/06/23 14:47:11;;;;;;;1.07;1.00;;;31.90;47.90;;;;;;5036032;28;20439;-73
2022/06/23 14:49:54;;;;;;;0.80;0.70;;;31.80;48.40;;;;;;5035976;28;20423;-73
2022/06/23 14:52:31;;;;;;;1.10;1.00;;;31.70;48.90;;;;;;5035776;28;20888;-74
2022/06/23 14:55:10;;;;;;;1.00;0.83;;;32.00;49.40;;;;;;5036005;28;20837;-73
2022/06/23 14:57:42;;;;;;;1.37;0.90;;;32.20;49.40;;;;;;5036792;28;20432;-73
2022/06/23 15:00:12;;;;;;;1.50;1.00;;;32.00;49.20;;;;;;5035914;28;20481;-74
2022/06/23 15:02:45;;;;;;;0.77;0.70;;;32.10;49.50;;;;;;5035831;28;20479;-73
2022/06/23 15:05:22;;;;;;;0.80;0.80;;;32.20;49.40;;;;;;5036204;28;20471;-74
2022/06/23 15:07:55;;;;;;;0.83;0.73;;;32.30;49.50;;;;;;5035840;28;20439;-74
2022/06/23 15:10:32;;;;;;;1.33;1.00;;;32.50;50.80;;;;;;5036028;28;20493;-74
2022/06/23 15:13:02;;;;;;;1.00;0.80;;;32.60;48.60;;;;;;5036123;28;20829;-73
2022/06/23 15:15:38;;;;;;;0.97;0.70;;;32.30;47.60;;;;;;5037509;28;20981;-73
2022/06/23 15:18:10;;;;;;;0.80;0.77;;;32.20;48.70;;;;;;5036013;28;20427;-73
2022/06/23 15:20:46;;;;;;;0.73;0.70;;;32.20;49.00;;;;;;5035749;28;20428;-73
2022/06/23 15:23:27;;;;;;;0.90;0.70;;;32.50;50.00;;;;;;5035695;28;20431;-74
2022/06/23 15:26:13;;;;;;;0.80;0.80;;;32.30;47.90;;;;;;5035833;28;20527;-73
2022/06/23 15:28:47;;;;;;;1.00;0.97;;;32.30;48.80;;;;;;5036041;28;20499;-74
2022/06/23 15:31:20;;;;;;;1.03;0.93;;;32.60;47.60;;;;;;5035357;28;20474;-74
2022/06/23 15:34:00;;;;;;;1.00;0.90;;;32.80;47.70;;;;;;5035444;28;20435;-73
2022/06/23 15:36:42;;;;;;;0.97;0.83;;;32.90;48.20;;;;;;5035427;28;20569;-74
2022/06/23 15:39:12;;;;;;;0.93;0.83;;;33.20;46.70;;;;;;5036787;28;20887;-74
2022/06/23 15:41:49;;;;;;;1.20;1.10;;;33.30;47.30;;;;;;5037313;28;20467;-74
2022/06/23 15:44:23;;;;;;;1.03;0.87;;;33.20;47.80;;;;;;5036760;28;20467;-74
2022/06/23 15:46:56;;;;;;;0.80;0.77;;;32.40;48.40;;;;;;5035602;28;20570;-74
2022/06/23 15:49:30;;;;;;;0.80;0.73;;;32.40;47.90;;;;;;5036335;28;20431;-74
2022/06/23 15:52:02;;;;;;;1.00;0.90;;;32.60;48.00;;;;;;5035876;28;20900;-74
2022/06/23 15:54:37;;;;;;;0.80;0.80;;;32.60;48.60;;;;;;5036940;28;20485;-74
2022/06/23 15:57:09;;;;;;;0.80;0.80;;;32.70;49.10;;;;;;5036010;28;20443;-74
2022/06/23 15:59:44;;;;;;;1.10;0.80;;;32.60;49.40;;;;;;5035562;28;20471;-74
2022/06/23 16:02:29;;;;;;;1.10;1.00;;;32.70;49.20;;;;;;5035577;28;20474;-74
2022/06/23 16:04:59;;;;;;;0.80;0.80;;;32.70;49.10;;;;;;5035545;28;20439;-73
2022/06/23 16:07:30;;;;;;;0.80;0.80;;;32.60;49.30;;;;;;5035328;28;20455;-73
2022/06/23 16:10:00;;;;;;;0.70;0.70;;;32.50;49.10;;;;;;5035219;28;20431;-73
2022/06/23 16:12:33;;;;;;;1.20;0.90;;;32.20;49.40;;;;;;5035127;28;20463;-73
2022/06/23 16:15:04;;;;;;;0.80;0.80;;;31.90;49.60;;;;;;5036320;28;20427;-74
2022/06/23 16:17:41;;;;;;;1.00;0.87;;;31.60;49.90;;;;;;5036636;28;20485;-74
2022/06/23 16:20:11;;;;;;;1.10;1.00;;;31.70;49.60;;;;;;5036499;28;20467;-74
2022/06/23 16:22:46;;;;;;;1.00;0.73;;;31.60;49.10;;;;;;5036372;28;20513;-73
2022/06/23 16:25:22;;;;;;;0.80;0.70;;;31.70;49.70;;;;;;5035733;28;20461;-73
2022/06/23 16:27:56;;;;;;;2.70;0.80;;;31.50;49.70;;;;;;5035129;28;20431;-74
2022/06/23 16:30:27;;;;;;;0.80;0.67;;;31.60;49.40;;;;;;5036392;28;20489;-74
2022/06/23 16:32:57;;;;;;;1.10;0.90;;;31.40;50.50;;;;;;5035695;28;20485;-74
2022/06/23 16:35:27;;;;;;;0.97;0.90;;;31.40;50.10;;;;;;5035181;28;20931;-74
2022/06/23 16:38:02;;;;;;;0.90;0.80;;;31.30;50.60;;;;;;5035019;28;20423;-74
2022/06/23 16:40:38;;;;;;;0.90;0.90;;;31.40;50.30;;;;;;5035148;28;20493;-73